Time;durP1;ratioP1;P1;durP2;ratioP2;P2;SDS_P1;SDS_P2;PMS_P1;PMS_P2;Temp;Humidity;BMP_temperature;BMP_pressure;BME280_temperature;BME280_humidity;BME280_pressure;Samples;Min_cycle;Max_cycle;Signal;HPM_P1;HPM_P2
2023/10/11 09:27:30;;;;;;;16.75;4.00;;;20.40;98.10;;;;;;7441383;19;3636174;-76
2023/10/11 09:30:19;;;;;;;11.65;4.15;;;20.10;97.40;;;;;;7639386;19;20014;-75
2023/10/11 09:32:59;;;;;;;20.83;4.85;;;20.30;96.30;;;;;;7609055;19;20047;-75
2023/10/11 09:35:32;;;;;;;14.20;3.85;;;20.60;95.00;;;;;;7611447;19;20030;-75
2023/10/11 09:38:06;;;;;;;27.75;4.95;;;20.90;95.40;;;;;;7630254;19;20014;-74
2023/10/11 09:40:38;;;;;;;18.38;4.47;;;21.10;94.50;;;;;;7626643;19;20022;-74
2023/10/11 09:43:16;;;;;;;20.65;5.00;;;21.20;95.20;;;;;;7639345;19;20022;-75
2023/10/11 09:45:54;;;;;;;18.40;5.03;;;21.30;94.10;;;;;;7626617;19;20337;-74
2023/10/11 09:48:27;;;;;;;13.43;3.90;;;21.50;92.30;;;;;;7630654;19;20050;-74
2023/10/11 09:51:00;;;;;;;14.57;4.53;;;21.60;92.60;;;;;;7637212;19;20010;-74
2023/10/11 09:53:32;;;;;;;15.60;4.78;;;21.80;90.60;;;;;;7637865;19;20010;-74
2023/10/11 09:56:15;;;;;;;12.90;4.47;;;21.90;91.00;;;;;;7645387;19;20043;-74
2023/10/11 09:59:28;;;;;;;17.48;4.28;;;22.00;90.20;;;;;;7641913;19;20015;-73
2023/10/11 10:02:29;;;;;;;13.07;4.03;;;22.10;88.40;;;;;;7630800;19;20086;-73
2023/10/11 10:05:04;;;;;;;15.60;4.32;;;22.30;86.10;;;;;;7638403;19;20010;-74
2023/10/11 10:10:24;;;;;;;12.90;4.25;;;22.30;86.10;;;;;;7642401;19;20022;-73
2023/10/11 10:13:10;;;;;;;11.30;4.07;;;22.40;85.20;;;;;;7630791;19;20026;-74
2023/10/11 10:15:47;;;;;;;13.00;4.57;;;22.50;85.30;;;;;;7635057;19;20022;-74
2023/10/11 10:18:21;;;;;;;11.93;3.53;;;22.60;82.40;;;;;;7636060;19;20033;-73
2023/10/11 10:21:04;;;;;;;12.23;4.35;;;22.80;82.50;;;;;;7638370;19;20337;-73
2023/10/11 10:23:42;;;;;;;14.50;4.18;;;22.90;83.10;;;;;;7632333;19;20018;-73
2023/10/11 10:26:19;;;;;;;14.70;4.30;;;23.10;81.60;;;;;;7622593;19;20396;-74
2023/10/11 10:28:57;;;;;;;16.77;4.35;;;23.10;81.60;;;;;;7621739;19;20010;-74
2023/10/11 10:31:33;;;;;;;42.75;16.52;;;23.20;80.50;;;;;;7630750;19;20025;-74
2023/10/11 10:34:13;;;;;;;16.83;5.32;;;23.40;80.20;;;;;;7632590;19;20029;-73
2023/10/11 10:36:45;;;;;;;15.02;4.30;;;23.50;79.10;;;;;;7612082;19;20048;-73
2023/10/11 10:42:15;;;;;;;11.80;4.18;;;23.50;80.80;;;;;;7603705;19;20010;-72
2023/10/11 10:44:50;;;;;;;14.32;4.32;;;23.50;79.10;;;;;;7612875;19;20006;-73
2023/10/11 10:47:27;;;;;;;16.33;4.50;;;23.60;80.80;;;;;;7613526;19;20093;-75
2023/10/11 10:50:09;;;;;;;11.10;4.43;;;23.50;81.60;;;;;;7614562;19;20025;-76
2023/10/11 10:52:41;;;;;;;13.57;4.53;;;23.60;82.20;;;;;;7601680;19;20018;-73
2023/10/11 10:55:14;;;;;;;15.55;4.57;;;24.00;79.40;;;;;;7612785;19;20013;-73
2023/10/11 10:57:49;;;;;;;15.90;4.60;;;24.00;80.40;;;;;;7598381;19;20014;-73
2023/10/11 11:00:23;;;;;;;12.68;4.40;;;23.90;80.60;;;;;;7606066;19;20350;-74
2023/10/11 11:02:56;;;;;;;17.75;4.25;;;23.90;80.40;;;;;;7608111;19;20014;-74
2023/10/11 11:05:29;;;;;;;22.00;5.38;;;23.90;80.30;;;;;;7620563;19;20030;-74
2023/10/11 11:08:18;;;;;;;16.15;4.85;;;23.90;79.30;;;;;;7603835;19;20030;-73
2023/10/11 11:11:20;;;;;;;23.02;5.25;;;24.00;79.90;;;;;;7608848;19;20017;-77
2023/10/11 11:13:54;;;;;;;37.08;12.85;;;24.10;79.30;;;;;;7612663;19;21697;-73
2023/10/11 11:16:29;;;;;;;15.02;3.95;;;24.30;79.60;;;;;;7615947;19;20049;-73
2023/10/11 11:19:11;;;;;;;18.95;4.82;;;25.00;77.70;;;;;;7602586;19;20014;-73
2023/10/11 11:21:46;;;;;;;15.05;4.18;;;26.70;73.40;;;;;;7574401;19;20022;-73
2023/10/11 11:24:27;;;;;;;12.70;4.18;;;28.40;69.60;;;;;;7581099;19;20010;-73
2023/10/11 11:27:06;;;;;;;14.45;5.00;;;;;;;;;;7583019;19;20015;-73
2023/10/11 11:29:38;;;;;;;18.52;5.10;;;29.30;65.50;;;;;;7583043;19;20025;-74
2023/10/11 11:32:15;;;;;;;14.45;4.78;;;;;;;;;;7589100;19;20013;-72
2023/10/11 11:35:09;;;;;;;16.13;4.75;;;32.40;60.40;;;;;;7579675;19;20026;-75
2023/10/11 11:38:05;;;;;;;18.88;5.22;;;33.70;53.80;;;;;;7577514;19;20537;-72
2023/10/11 11:40:37;;;;;;;18.77;4.47;;;33.10;53.20;;;;;;7584671;19;20014;-72
2023/10/11 11:43:11;;;;;;;11.43;5.03;;;33.10;52.20;;;;;;7591635;19;20130;-73
2023/10/11 11:45:45;;;;;;;18.08;4.93;;;33.60;51.90;;;;;;7578258;19;20050;-74
2023/10/11 11:48:23;;;;;;;15.48;4.80;;;33.20;50.50;;;;;;7580202;19;20647;-73
2023/10/11 11:50:57;;;;;;;14.43;4.35;;;32.90;51.70;;;;;;7581113;19;20238;-73
2023/10/11 11:53:31;;;;;;;14.02;5.07;;;;;;;;;;7592805;19;20678;-73
2023/10/11 11:56:06;;;;;;;12.40;4.30;;;33.90;51.80;;;;;;7591823;19;20018;-73
2023/10/11 11:58:45;;;;;;;11.05;4.80;;;32.30;50.20;;;;;;7592581;19;20022;-73
2023/10/11 12:01:19;;;;;;;19.80;5.28;;;31.90;53.40;;;;;;7585556;19;20047;-73
2023/10/11 12:03:54;;;;;;;15.70;4.85;;;31.90;52.60;;;;;;7549821;19;20308;-74
2023/10/11 12:06:34;;;;;;;17.52;4.97;;;31.80;52.10;;;;;;7567982;19;20011;-70
2023/10/11 12:09:20;;;;;;;19.67;4.93;;;30.20;54.30;;;;;;7574500;19;20017;-70
2023/10/11 12:11:54;;;;;;;15.45;4.63;;;28.70;56.40;;;;;;7561191;19;20126;-70
2023/10/11 12:14:26;;;;;;;15.95;5.10;;;28.00;58.10;;;;;;7570311;19;20010;-71
2023/10/11 12:16:59;;;;;;;20.80;5.18;;;27.50;59.10;;;;;;7559780;19;20011;-70
2023/10/11 12:19:32;;;;;;;16.87;4.83;;;27.20;59.30;;;;;;7567305;19;20033;-70
2023/10/11 12:22:05;;;;;;;;;;;27.10;60.20;;;;;;7593527;19;20272;-71
2023/10/11 12:24:44;;;;;;;16.37;4.70;;;26.90;60.60;;;;;;7593285;19;20361;-70
2023/10/11 12:27:16;;;;;;;13.98;4.72;;;26.80;62.60;;;;;;7597295;19;20055;-70
2023/10/11 12:29:49;;;;;;;12.82;4.63;;;26.70;61.70;;;;;;7592033;19;20010;-71
2023/10/11 12:32:38;;;;;;;15.75;4.60;;;26.50;62.60;;;;;;7590119;19;20022;-70
2023/10/11 12:35:13;;;;;;;12.60;4.30;;;26.80;62.70;;;;;;7606444;19;20615;-71
2023/10/11 12:37:46;;;;;;;15.32;4.53;;;27.20;62.30;;;;;;7589125;19;20094;-71
2023/10/11 12:40:24;;;;;;;19.30;4.97;;;27.60;61.40;;;;;;7590989;19;20021;-70
2023/10/11 12:42:56;;;;;;;16.42;5.57;;;29.10;60.00;;;;;;7573412;19;20039;-72
2023/10/11 12:45:28;;;;;;;17.83;5.35;;;30.10;55.40;;;;;;7587337;19;20014;-71
2023/10/11 12:48:10;;;;;;;19.98;5.10;;;29.70;57.00;;;;;;7581966;19;21526;-71
2023/10/11 12:50:42;;;;;;;25.20;5.53;;;30.10;55.40;;;;;;7574346;19;21571;-71
2023/10/11 12:53:15;;;;;;;15.73;4.63;;;30.90;55.60;;;;;;7573860;19;20029;-71
2023/10/11 12:55:50;;;;;;;16.20;4.80;;;32.30;53.40;;;;;;7568928;19;20044;-72
2023/10/11 12:58:39;;;;;;;16.58;4.57;;;31.30;53.80;;;;;;7576229;19;20764;-73
2023/10/11 13:01:13;;;;;;;20.40;4.97;;;29.70;55.40;;;;;;7570243;19;20018;-71
2023/10/11 13:03:52;;;;;;;13.32;4.80;;;28.60;57.60;;;;;;7583576;19;20048;-71
2023/10/11 13:06:26;;;;;;;21.50;4.50;;;28.10;59.70;;;;;;7066226;19;10000035;-71
2023/10/11 13:09:03;;;;;;;17.52;4.63;;;27.70;59.80;;;;;;7565460;19;20021;-71
2023/10/11 13:11:35;;;;;;;19.73;5.18;;;28.10;59.20;;;;;;7568045;19;20088;-72
2023/10/11 13:14:07;;;;;;;13.63;4.82;;;28.40;60.10;;;;;;7573961;19;20018;-71
2023/10/11 13:16:40;;;;;;;21.57;5.13;;;29.10;58.50;;;;;;7563768;19;20370;-71
2023/10/11 13:19:17;;;;;;;13.45;4.90;;;28.70;58.10;;;;;;7585931;19;20149;-70
2023/10/11 13:21:55;;;;;;;12.15;4.30;;;28.80;57.50;;;;;;7564667;19;21033;-70
2023/10/11 13:24:28;;;;;;;12.20;4.68;;;;;;;;;;7576006;19;20018;-69
2023/10/11 13:27:01;;;;;;;;;;;;;;;;;;7568803;19;20620;-70
2023/10/11 13:29:33;;;;;;;12.75;4.50;;;31.00;56.20;;;;;;7582703;19;20271;-71
2023/10/11 13:32:07;;;;;;;15.63;5.10;;;;;;;;;;7552292;19;20026;-73
2023/10/11 13:34:42;;;;;;;16.98;4.60;;;;;;;;;;7591954;19;20861;-71
2023/10/11 13:37:18;;;;;;;17.70;4.10;;;;;;;;;;7576054;19;20503;-72
2023/10/11 13:39:54;;;;;;;12.20;4.70;;;;;;;;;;7584465;19;21223;-71
2023/10/11 13:42:26;;;;;;;20.83;5.07;;;;;;;;;;7586141;19;20018;-71
2023/10/11 13:44:59;;;;;;;12.32;4.60;;;35.60;46.90;;;;;;7584799;19;20094;-72
2023/10/11 13:47:36;;;;;;;16.35;4.63;;;37.40;42.90;;;;;;7573778;19;20107;-70
2023/10/11 13:50:20;;;;;;;19.02;5.35;;;37.20;43.10;;;;;;7591355;19;20015;-71
2023/10/11 13:52:53;;;;;;;9.52;4.40;;;;;;;;;;7591946;19;20022;-71
2023/10/11 13:55:27;;;;;;;14.10;5.03;;;;;;;;;;7581544;19;20019;-73
2023/10/11 13:58:11;;;;;;;13.23;5.57;;;;;;;;;;7581043;19;20996;-74
2023/10/11 14:06:01;;;;;;;;;;;;;;;;;;7581594;19;20059;-71
2023/10/11 14:08:43;;;;;;;11.65;4.55;;;;;;;;;;7585041;19;19930;-72
2023/10/11 14:11:19;;;;;;;10.13;4.70;;;;;;;;;;7582363;19;20030;-74
2023/10/11 14:13:52;;;;;;;12.68;4.47;;;;;;;;;;7589459;19;20037;-73
2023/10/11 14:16:27;;;;;;;11.73;4.20;;;;;;;;;;7582745;19;20480;-73
2023/10/11 14:19:06;;;;;;;8.93;4.50;;;;;;;;;;7585395;19;20014;-73
2023/10/11 14:21:40;;;;;;;14.85;4.43;;;;;;;;;;7589752;19;20026;-73
2023/10/11 14:24:13;;;;;;;10.73;4.82;;;;;;;;;;7590180;19;20054;-73
2023/10/11 14:26:47;;;;;;;12.48;3.92;;;;;;;;;;7595063;19;20018;-72
2023/10/11 14:29:20;;;;;;;10.57;4.05;;;37.40;43.50;;;;;;7597771;19;20030;-73
2023/10/11 14:31:53;;;;;;;10.80;4.28;;;36.60;39.80;;;;;;7589248;19;20018;-74
2023/10/11 14:34:26;;;;;;;10.43;3.45;;;35.20;41.50;;;;;;7600309;19;20037;-74
2023/10/11 14:37:00;;;;;;;7.43;3.88;;;33.60;42.30;;;;;;7584268;19;20307;-73
2023/10/11 14:39:32;;;;;;;11.68;3.97;;;31.70;44.20;;;;;;7594626;19;20015;-73
2023/10/11 14:42:04;;;;;;;14.43;3.75;;;30.30;45.80;;;;;;7593425;19;20014;-73
2023/10/11 14:44:36;;;;;;;8.77;3.67;;;29.40;46.40;;;;;;7591880;19;20038;-73
2023/10/11 14:47:13;;;;;;;11.43;4.23;;;29.10;48.30;;;;;;7591234;19;20015;-72
2023/10/11 14:49:46;;;;;;;13.38;4.60;;;28.80;49.10;;;;;;7599420;19;20022;-75
2023/10/11 14:52:18;;;;;;;12.43;4.25;;;28.30;49.30;;;;;;7574395;19;20451;-72
2023/10/11 14:54:53;;;;;;;10.55;4.45;;;27.90;50.20;;;;;;7586512;19;20044;-72
2023/10/11 14:57:25;;;;;;;12.07;3.95;;;27.50;49.70;;;;;;7590066;19;20530;-74
2023/10/11 14:59:58;;;;;;;9.82;3.97;;;27.20;50.10;;;;;;7579931;19;20490;-74
2023/10/11 15:02:32;;;;;;;8.93;3.90;;;26.80;51.00;;;;;;7585113;19;20010;-71
2023/10/11 15:05:05;;;;;;;12.40;3.97;;;26.70;52.00;;;;;;7585418;19;20056;-72
2023/10/11 15:07:40;;;;;;;13.35;4.85;;;26.40;51.30;;;;;;7561703;19;20018;-73
2023/10/11 15:10:13;;;;;;;10.75;3.83;;;26.20;51.50;;;;;;7582174;19;20525;-72
2023/10/11 15:12:45;;;;;;;13.35;3.90;;;26.10;52.20;;;;;;7564087;19;20010;-72
2023/10/11 15:15:26;;;;;;;11.57;4.40;;;26.00;52.90;;;;;;7571065;19;20015;-73
2023/10/11 15:18:01;;;;;;;17.35;4.05;;;25.90;52.60;;;;;;7568084;19;20021;-73
2023/10/11 15:20:34;;;;;;;15.02;4.00;;;25.80;53.40;;;;;;7578456;19;20015;-74
2023/10/11 15:23:07;;;;;;;12.30;4.20;;;25.60;54.40;;;;;;7583404;19;20511;-78
2023/10/11 15:25:40;;;;;;;8.20;4.03;;;25.40;53.80;;;;;;7552758;19;20435;-79
2023/10/11 15:28:13;;;;;;;13.90;3.95;;;25.20;54.40;;;;;;7583919;19;20014;-79
2023/10/11 15:30:45;;;;;;;10.25;3.90;;;25.10;54.80;;;;;;7591957;19;20704;-77
2023/10/11 15:33:18;;;;;;;8.40;3.85;;;25.10;55.40;;;;;;7603310;19;20708;-77
2023/10/11 15:35:52;;;;;;;12.23;4.07;;;25.00;56.00;;;;;;7594210;19;20093;-77
2023/10/11 15:38:26;;;;;;;12.98;3.95;;;24.80;55.10;;;;;;7597477;19;20015;-79
2023/10/11 15:41:06;;;;;;;11.30;4.13;;;24.70;56.50;;;;;;7595871;19;20019;-79
2023/10/11 15:43:39;;;;;;;12.15;3.63;;;24.60;56.70;;;;;;7630236;19;20025;-78
2023/10/11 15:46:12;;;;;;;8.55;3.50;;;24.60;56.30;;;;;;7574621;19;20118;-81
2023/10/11 15:48:44;;;;;;;12.95;4.18;;;24.60;56.70;;;;;;7602497;19;20014;-78
2023/10/11 15:51:23;;;;;;;16.27;4.38;;;24.50;57.00;;;;;;7561879;19;20011;-81
2023/10/11 15:53:55;;;;;;;11.98;4.30;;;24.30;57.30;;;;;;7592992;19;20044;-77
2023/10/11 15:56:31;;;;;;;18.10;4.50;;;24.20;58.00;;;;;;7605546;19;20018;-77
2023/10/11 15:59:06;;;;;;;10.73;4.22;;;24.10;58.40;;;;;;7582110;19;20043;-81
2023/10/11 16:01:41;;;;;;;17.65;4.40;;;23.80;59.20;;;;;;7554390;19;20018;-78
2023/10/11 16:04:13;;;;;;;14.30;4.45;;;23.80;58.60;;;;;;7573473;19;20022;-78
2023/10/11 16:06:49;;;;;;;15.45;4.50;;;23.70;59.20;;;;;;7561252;19;20981;-81
2023/10/11 16:09:21;;;;;;;15.00;4.22;;;23.60;59.40;;;;;;7542442;19;20019;-80
2023/10/11 16:11:53;;;;;;;10.73;3.95;;;23.50;59.40;;;;;;7558521;19;20022;-79
2023/10/11 16:14:26;;;;;;;7.70;3.75;;;23.30;60.40;;;;;;7580684;19;20018;-73
2023/10/11 16:16:58;;;;;;;13.43;4.00;;;23.30;60.20;;;;;;7550281;19;20019;-75
2023/10/11 16:19:30;;;;;;;9.57;4.75;;;23.20;61.10;;;;;;7584423;19;20023;-72
2023/10/11 16:22:03;;;;;;;14.25;4.47;;;23.00;61.70;;;;;;7564303;19;20143;-73
2023/10/11 16:24:37;;;;;;;11.40;4.10;;;22.80;62.00;;;;;;7575280;19;20022;-74
2023/10/11 16:27:13;;;;;;;13.52;4.03;;;22.80;62.50;;;;;;7547586;19;20605;-73
2023/10/11 16:29:46;;;;;;;15.50;5.40;;;22.70;63.20;;;;;;7549268;19;20022;-76
2023/10/11 16:32:18;;;;;;;11.80;4.40;;;22.50;64.00;;;;;;7569404;19;20030;-73
2023/10/11 16:34:51;;;;;;;13.25;4.43;;;22.40;66.10;;;;;;7571405;19;20026;-74
2023/10/11 16:37:23;;;;;;;11.65;4.60;;;22.30;66.90;;;;;;7559375;19;20946;-76
2023/10/11 16:39:55;;;;;;;14.93;4.63;;;22.10;68.70;;;;;;7575334;19;20610;-75
2023/10/11 16:42:28;;;;;;;14.63;4.43;;;21.90;70.30;;;;;;7570759;19;20022;-75
2023/10/11 16:45:01;;;;;;;13.70;4.55;;;21.70;71.60;;;;;;7582736;19;20746;-74
2023/10/11 16:47:36;;;;;;;15.98;4.97;;;21.50;72.40;;;;;;7570084;19;20752;-74
2023/10/11 16:50:16;;;;;;;11.50;4.65;;;21.30;73.30;;;;;;7583685;19;20018;-73
2023/10/11 16:52:50;;;;;;;12.55;5.07;;;21.10;75.10;;;;;;7593362;19;20021;-75
2023/10/11 16:55:22;;;;;;;15.27;4.45;;;20.90;74.70;;;;;;7592193;19;20034;-74
2023/10/11 16:57:55;;;;;;;9.07;4.53;;;20.80;76.80;;;;;;7589344;19;20011;-74
2023/10/11 17:00:32;;;;;;;12.90;4.50;;;20.60;77.20;;;;;;7583625;19;20419;-73
2023/10/11 17:03:06;;;;;;;14.35;4.85;;;20.50;77.30;;;;;;7581399;19;20006;-74
2023/10/11 17:05:39;;;;;;;10.13;4.43;;;20.30;77.00;;;;;;7576348;19;20038;-73
2023/10/11 17:08:14;;;;;;;11.00;4.40;;;20.30;78.60;;;;;;7574705;19;20599;-73
2023/10/11 17:10:48;;;;;;;12.27;4.43;;;20.00;78.70;;;;;;7575351;19;20597;-75
2023/10/11 17:13:21;;;;;;;15.88;4.45;;;19.80;79.20;;;;;;7563939;19;20010;-75
2023/10/11 17:15:54;;;;;;;13.13;4.80;;;19.70;78.80;;;;;;7581257;19;20039;-73
2023/10/11 17:18:28;;;;;;;12.18;4.78;;;19.70;80.40;;;;;;7560788;19;20242;-75
2023/10/11 17:21:00;;;;;;;;;;;19.60;81.70;;;;;;7576768;19;20052;-73
2023/10/11 17:23:33;;;;;;;11.65;4.50;;;19.40;80.70;;;;;;7564727;19;20540;-73
2023/10/11 17:26:13;;;;;;;12.57;4.93;;;19.30;82.00;;;;;;7556570;19;20030;-76
2023/10/11 17:28:50;;;;;;;11.38;4.93;;;19.10;82.50;;;;;;7561893;19;20018;-75
2023/10/11 17:31:22;;;;;;;14.90;5.13;;;19.00;83.20;;;;;;7558049;19;20023;-75
2023/10/11 17:33:55;;;;;;;12.02;5.43;;;18.90;83.40;;;;;;7570597;19;20044;-73
2023/10/11 17:36:27;;;;;;;11.30;5.35;;;18.90;84.00;;;;;;7566758;19;20966;-72
2023/10/11 17:39:00;;;;;;;12.95;6.20;;;18.80;83.70;;;;;;7567755;19;20052;-73
2023/10/11 17:41:32;;;;;;;14.82;7.72;;;18.80;84.30;;;;;;7565063;19;20141;-73
2023/10/11 17:44:05;;;;;;;13.82;7.80;;;18.80;83.60;;;;;;7574770;19;20011;-72
2023/10/11 17:46:37;;;;;;;16.00;7.23;;;18.70;84.30;;;;;;7572836;19;20088;-73
2023/10/11 17:49:10;;;;;;;16.92;7.15;;;18.60;83.90;;;;;;7569506;19;20416;-74
2023/10/11 17:51:43;;;;;;;14.38;6.15;;;18.50;85.50;;;;;;7571538;19;20013;-73
2023/10/11 17:54:15;;;;;;;16.23;6.22;;;18.50;83.60;;;;;;7568375;19;20399;-74
2023/10/11 17:56:53;;;;;;;15.93;6.43;;;18.70;82.70;;;;;;7572871;19;20018;-73
2023/10/11 17:59:25;;;;;;;13.43;5.88;;;18.60;86.40;;;;;;7567552;19;20014;-73
2023/10/11 18:01:57;;;;;;;16.30;5.82;;;18.30;86.70;;;;;;7580285;19;20807;-73
2023/10/11 18:04:30;;;;;;;14.05;5.65;;;18.10;87.00;;;;;;7572920;19;20015;-74
2023/10/11 18:07:02;;;;;;;12.68;5.47;;;18.00;87.90;;;;;;7577300;19;21488;-75
2023/10/11 18:09:34;;;;;;;21.52;6.10;;;17.80;88.40;;;;;;7586222;19;20036;-73
2023/10/11 18:12:07;;;;;;;13.60;5.53;;;17.70;88.90;;;;;;7585996;19;21317;-75
2023/10/11 18:14:42;;;;;;;9.50;5.00;;;17.70;88.80;;;;;;7577329;19;21144;-73
2023/10/11 18:17:18;;;;;;;14.98;4.60;;;17.60;90.10;;;;;;7564514;19;20045;-73
2023/10/11 18:19:53;;;;;;;16.17;5.10;;;17.50;90.10;;;;;;7593668;19;20022;-75
2023/10/11 18:22:29;;;;;;;11.18;4.88;;;17.40;90.30;;;;;;7565930;19;20127;-73
2023/10/11 18:25:01;;;;;;;13.02;5.47;;;17.40;90.30;;;;;;7574076;19;20612;-75
2023/10/11 18:27:33;;;;;;;19.17;5.45;;;17.60;86.60;;;;;;7570078;19;20018;-78
2023/10/11 18:30:06;;;;;;;14.30;5.35;;;17.70;89.20;;;;;;7594217;19;20007;-79
2023/10/11 18:32:40;;;;;;;11.70;5.00;;;17.50;90.20;;;;;;7595041;19;20014;-81
2023/10/11 18:35:12;;;;;;;9.75;4.85;;;17.30;90.20;;;;;;7595750;19;21278;-82
2023/10/11 18:37:45;;;;;;;16.02;5.88;;;17.20;90.40;;;;;;7590135;19;20014;-78
2023/10/11 18:40:22;;;;;;;16.07;5.77;;;17.20;90.60;;;;;;7590639;19;20022;-81
2023/10/11 18:42:58;;;;;;;13.07;5.07;;;17.00;91.00;;;;;;7592527;19;20425;-77
2023/10/11 18:45:31;;;;;;;13.23;5.82;;;16.90;91.20;;;;;;7587040;19;20692;-81
2023/10/11 18:48:04;;;;;;;11.02;5.07;;;16.80;91.50;;;;;;7595965;19;20017;-79
2023/10/11 18:50:36;;;;;;;12.33;5.27;;;16.80;91.90;;;;;;7571571;19;20737;-80
2023/10/11 18:53:08;;;;;;;16.95;4.65;;;16.70;91.80;;;;;;7579373;19;20025;-82
2023/10/11 18:55:42;;;;;;;13.43;5.90;;;16.80;90.90;;;;;;7574653;19;20021;-78
2023/10/11 18:58:15;;;;;;;12.30;5.70;;;17.00;89.70;;;;;;7580999;19;20041;-79
2023/10/11 19:00:48;;;;;;;12.20;5.55;;;17.00;90.50;;;;;;7581104;19;21285;-79
2023/10/11 19:03:21;;;;;;;13.63;5.72;;;16.80;91.70;;;;;;7575322;19;20875;-81
2023/10/11 19:05:58;;;;;;;17.83;5.80;;;16.70;91.90;;;;;;7580440;19;20018;-79
2023/10/11 19:08:31;;;;;;;10.65;5.45;;;16.50;92.30;;;;;;7575605;19;20042;-79
2023/10/11 19:11:11;;;;;;;13.10;6.13;;;16.30;92.50;;;;;;7584953;19;20597;-79
2023/10/11 19:13:43;;;;;;;11.48;5.65;;;16.30;92.80;;;;;;7574167;19;20014;-79
2023/10/11 19:16:17;;;;;;;12.98;5.68;;;16.20;93.10;;;;;;7569641;19;20056;-78
2023/10/11 19:18:58;;;;;;;13.57;5.90;;;16.10;93.10;;;;;;7585490;19;20514;-81
2023/10/11 19:21:30;;;;;;;16.38;6.50;;;16.00;93.30;;;;;;7581546;19;20018;-81
2023/10/11 19:24:08;;;;;;;15.07;6.40;;;15.90;93.20;;;;;;7589490;19;20105;-78
2023/10/11 19:26:42;;;;;;;13.27;6.45;;;15.90;93.90;;;;;;7589603;19;20055;-78
2023/10/11 19:29:14;;;;;;;13.27;6.38;;;15.80;93.80;;;;;;7589027;19;20014;-82
2023/10/11 19:31:47;;;;;;;19.65;6.72;;;15.90;93.60;;;;;;7570681;19;20467;-74
2023/10/11 19:34:19;;;;;;;17.88;5.68;;;16.00;92.80;;;;;;7580178;19;20010;-74
2023/10/11 19:36:52;;;;;;;15.32;6.25;;;16.20;92.30;;;;;;7582124;19;20036;-75
2023/10/11 19:39:25;;;;;;;13.23;6.40;;;16.40;91.90;;;;;;7561792;19;20599;-75
2023/10/11 19:41:57;;;;;;;14.35;5.93;;;16.30;91.60;;;;;;7583307;19;20026;-74
2023/10/11 19:44:29;;;;;;;12.43;5.80;;;16.30;91.50;;;;;;7587708;19;20014;-74
2023/10/11 19:47:03;;;;;;;11.10;4.97;;;16.10;91.60;;;;;;7153762;19;10000739;-74
2023/10/11 19:49:35;;;;;;;18.45;5.80;;;16.10;91.70;;;;;;7579536;19;20287;-74
2023/10/11 19:52:08;;;;;;;15.60;6.20;;;16.00;91.80;;;;;;7577457;19;20587;-74
2023/10/11 19:54:40;;;;;;;13.47;5.37;;;15.90;91.90;;;;;;7584276;19;20014;-72
2023/10/11 19:57:13;;;;;;;11.70;6.15;;;15.80;92.00;;;;;;7575876;19;20018;-73
2023/10/11 19:59:46;;;;;;;10.98;5.57;;;15.70;92.20;;;;;;7588859;19;21174;-75
2023/10/11 20:02:21;;;;;;;13.95;5.35;;;15.70;92.50;;;;;;7582244;19;20011;-73
2023/10/11 20:04:55;;;;;;;16.10;6.57;;;15.80;92.20;;;;;;7587709;19;20018;-74
2023/10/11 20:07:28;;;;;;;;;;;15.80;91.90;;;;;;7553387;19;20047;-73
2023/10/11 20:10:01;;;;;;;12.05;5.97;;;15.80;93.10;;;;;;7575047;19;20264;-73
2023/10/11 20:12:34;;;;;;;13.15;6.30;;;15.60;94.20;;;;;;7578806;19;20059;-76
2023/10/11 20:15:10;;;;;;;12.48;6.18;;;15.50;93.50;;;;;;7596173;19;20365;-76
2023/10/11 20:17:51;;;;;;;18.35;6.25;;;15.60;93.00;;;;;;7610788;19;20019;-75
2023/10/11 20:20:24;;;;;;;13.93;6.03;;;15.70;93.00;;;;;;7605477;19;20085;-74
2023/10/11 20:22:58;;;;;;;14.32;6.28;;;15.60;94.20;;;;;;7607091;19;20015;-74
2023/10/11 20:25:32;;;;;;;13.85;5.78;;;15.40;94.60;;;;;;7597575;19;20019;-75
2023/10/11 20:28:07;;;;;;;20.97;6.53;;;15.30;95.10;;;;;;7603879;19;20036;-74
2023/10/11 20:30:39;;;;;;;20.05;5.93;;;15.10;95.30;;;;;;7605050;19;20614;-74
2023/10/11 20:33:15;;;;;;;11.05;5.95;;;15.20;94.80;;;;;;7612630;19;20061;-75
2023/10/11 20:35:49;;;;;;;23.98;6.30;;;15.10;95.30;;;;;;7588732;19;20014;-75
2023/10/11 20:38:22;;;;;;;14.50;5.68;;;15.00;95.70;;;;;;7598236;19;20046;-73
2023/10/11 20:40:55;;;;;;;12.15;6.32;;;15.10;94.40;;;;;;7602237;19;20018;-73
2023/10/11 20:43:27;;;;;;;13.77;6.32;;;15.10;94.60;;;;;;7607991;19;20052;-75
2023/10/11 20:46:00;;;;;;;11.15;6.07;;;14.90;94.80;;;;;;7581983;19;20011;-75
2023/10/11 20:48:35;;;;;;;16.20;6.75;;;15.00;95.40;;;;;;7596873;19;20053;-73
2023/10/11 20:51:07;;;;;;;16.40;6.13;;;14.90;96.00;;;;;;7604638;19;20025;-75
2023/10/11 20:53:39;;;;;;;13.88;6.60;;;14.90;96.20;;;;;;7599516;19;20017;-76
2023/10/11 20:56:12;;;;;;;15.07;6.20;;;14.90;95.70;;;;;;7592131;19;20029;-75
2023/10/11 20:58:55;;;;;;;20.13;5.85;;;14.80;96.30;;;;;;7590957;19;20018;-75
2023/10/11 21:01:28;;;;;;;21.75;6.20;;;14.70;96.50;;;;;;7584953;19;20521;-72
2023/10/11 21:04:00;;;;;;;15.45;5.88;;;14.60;97.00;;;;;;7578540;19;20027;-74
2023/10/11 21:06:33;;;;;;;17.65;6.38;;;14.60;96.40;;;;;;7567325;19;20032;-72
2023/10/11 21:09:06;;;;;;;;;;;14.60;96.80;;;;;;7593491;19;20099;-72
2023/10/11 21:11:39;;;;;;;22.52;6.22;;;14.60;97.00;;;;;;7604168;19;19932;-72
2023/10/11 21:14:11;;;;;;;15.50;5.13;;;14.60;96.60;;;;;;7606094;19;20019;-74
2023/10/11 21:16:43;;;;;;;14.52;5.70;;;14.80;95.60;;;;;;7611298;19;20022;-74
2023/10/11 21:19:18;;;;;;;17.33;6.00;;;14.90;95.40;;;;;;7612041;19;20018;-72
2023/10/11 21:21:52;;;;;;;11.55;5.25;;;14.90;95.10;;;;;;7610229;19;20527;-72
2023/10/11 21:24:24;;;;;;;14.93;6.18;;;14.90;95.20;;;;;;7611713;19;20026;-74
2023/10/11 21:26:57;;;;;;;17.90;5.85;;;14.90;95.90;;;;;;7611993;19;20093;-72
2023/10/11 21:29:29;;;;;;;12.50;6.18;;;14.80;95.90;;;;;;7608473;19;20018;-74
2023/10/11 21:32:02;;;;;;;14.50;5.70;;;14.70;96.00;;;;;;7612700;19;20030;-74
2023/10/11 21:34:34;;;;;;;16.43;6.33;;;14.60;96.30;;;;;;7608434;19;20042;-72
2023/10/11 21:37:07;;;;;;;11.23;5.75;;;14.50;96.80;;;;;;7611201;19;20051;-72
2023/10/11 21:39:40;;;;;;;15.13;5.88;;;14.40;97.30;;;;;;7600608;19;20101;-72
2023/10/11 21:42:12;;;;;;;20.35;6.32;;;14.30;97.40;;;;;;7610060;19;20039;-74
2023/10/11 21:44:46;;;;;;;11.95;5.00;;;14.10;97.80;;;;;;7607884;19;20049;-74
2023/10/11 21:47:20;;;;;;;14.20;5.47;;;14.20;97.20;;;;;;7609207;19;20055;-72
2023/10/11 21:49:52;;;;;;;15.33;5.43;;;14.30;97.00;;;;;;7606862;19;20022;-72
2023/10/11 21:52:24;;;;;;;11.48;5.55;;;14.20;97.60;;;;;;7609994;19;20774;-72
2023/10/11 21:54:56;;;;;;;12.70;5.10;;;14.20;98.10;;;;;;7607611;19;20055;-72
2023/10/11 21:57:28;;;;;;;9.90;4.78;;;14.20;98.10;;;;;;7610272;19;20048;-71
2023/10/11 22:00:01;;;;;;;17.48;5.28;;;14.10;97.80;;;;;;7609402;19;20010;-72
2023/10/11 22:02:46;;;;;;;17.15;5.85;;;14.10;98.20;;;;;;7601311;19;20081;-72
2023/10/11 22:05:20;;;;;;;13.45;5.50;;;14.00;98.20;;;;;;7148541;19;10001320;-72
2023/10/11 22:07:58;;;;;;;;;;;14.10;98.00;;;;;;6589179;19;10000536;-72
2023/10/11 22:10:31;;;;;;;16.70;5.25;;;14.10;98.50;;;;;;7605948;19;19922;-72
2023/10/11 22:13:04;;;;;;;17.65;5.97;;;14.00;98.70;;;;;;7608595;19;20018;-72
2023/10/11 22:15:36;;;;;;;15.27;6.15;;;14.00;99.00;;;;;;7602802;19;20021;-72
2023/10/11 22:18:08;;;;;;;13.30;5.60;;;13.90;99.00;;;;;;7604876;19;20040;-74
2023/10/11 22:20:42;;;;;;;8.57;5.03;;;13.80;99.30;;;;;;7601027;19;20015;-74
2023/10/11 22:23:17;;;;;;;8.65;5.05;;;13.70;99.60;;;;;;7609267;19;20607;-73
2023/10/11 22:25:49;;;;;;;11.63;5.47;;;13.60;99.90;;;;;;7605297;19;20028;-74
2023/10/11 22:28:22;;;;;;;12.00;4.97;;;13.70;99.90;;;;;;7610390;19;20018;-74
2023/10/11 22:30:55;;;;;;;13.90;5.53;;;13.60;99.90;;;;;;7605671;19;20094;-72
2023/10/11 22:33:27;;;;;;;10.55;5.18;;;13.80;99.50;;;;;;7614152;19;20021;-74
2023/10/11 22:36:00;;;;;;;11.88;5.22;;;13.80;99.50;;;;;;7615291;19;20018;-74
2023/10/11 22:38:32;;;;;;;14.57;5.85;;;13.80;99.50;;;;;;7609934;19;20543;-74
2023/10/11 22:41:04;;;;;;;15.23;6.03;;;13.80;99.60;;;;;;7612622;19;20022;-74
2023/10/11 22:43:37;;;;;;;9.73;4.87;;;13.80;99.60;;;;;;7616628;19;20879;-72
2023/10/11 22:46:13;;;;;;;16.80;5.80;;;13.80;99.60;;;;;;7610712;19;20047;-72
2023/10/11 22:48:45;;;;;;;9.55;5.68;;;13.90;99.50;;;;;;7614029;19;20022;-74
2023/10/11 22:51:21;;;;;;;13.20;5.97;;;13.80;99.70;;;;;;7616232;19;20386;-72
2023/10/11 22:53:55;;;;;;;10.07;5.30;;;13.60;99.90;;;;;;7605797;19;20452;-73
2023/10/11 22:56:33;;;;;;;10.35;4.90;;;13.40;99.90;;;;;;7618155;19;20022;-74
2023/10/11 22:59:09;;;;;;;17.63;6.07;;;13.50;99.90;;;;;;7618016;19;20026;-74
2023/10/11 23:01:41;;;;;;;11.45;5.53;;;13.50;99.90;;;;;;7612871;19;20018;-73